Audubon, Minnesota
Current Conditions -  °F | °C
As of 10:55 PM on Tuesday 21 Oct 2014 (Local Time) from KDTL Reporting Station
Clear Clear  
Wind Chill: 50°   Ceiling: Unl
Heat Index: 50°   Visibility: 10mi
Dew Point: 41°   Wind: 17mph
Humidity: 71%   Direction: 150°SSE
Pressure: 30"   Gusts: NA
Location:  46.86°N, 95.98°W
Report Text: KDTL 220355Z AUTO 15015KT 10SM CLR 10/05 A3000 RMK AO2
Loading
Personal Weather Stations






























Interactive Weather Map New forecast layout! Learn more

10-Day Weather Forecast

Advertisements
Track Severe Weather on mobile